Time;durP1;ratioP1;P1;durP2;ratioP2;P2;SDS_P1;SDS_P2;PMS_P1;PMS_P2;Temp;Humidity;BMP_temperature;BMP_pressure;BME280_temperature;BME280_humidity;BME280_pressure;Samples;Min_cycle;Max_cycle;Signal;HPM_P1;HPM_P2
2022/03/21 00:01:17;;;;;;;31.60;27.63;;;;;;;1.02;73.55;102808.97;5038268;28;20420;-86
2022/03/21 00:03:42;;;;;;;29.73;26.55;;;;;;;0.97;74.18;102811.06;5038382;28;20040;-86
2022/03/21 00:06:08;;;;;;;30.35;26.58;;;;;;;0.94;73.45;102808.63;5021958;28;20029;-86
2022/03/21 00:08:35;;;;;;;30.83;26.23;;;;;;;0.85;74.40;102809.25;5038044;28;20067;-86
2022/03/21 00:11:00;;;;;;;27.63;24.13;;;;;;;0.82;75.15;102802.28;5055669;28;20033;-86
2022/03/21 00:13:27;;;;;;;29.65;25.63;;;;;;;0.81;74.93;102802.38;5037758;28;20033;-86
2022/03/21 00:15:54;;;;;;;28.77;23.70;;;;;;;0.79;75.39;102798.97;5055249;28;20033;-86
2022/03/21 00:18:20;;;;;;;27.65;23.83;;;;;;;0.76;74.64;102809.88;5037877;28;20059;-86
2022/03/21 00:20:50;;;;;;;28.27;23.52;;;;;;;0.75;75.93;102802.81;5004939;28;20037;-86
2022/03/21 00:23:17;;;;;;;29.15;25.10;;;;;;;0.70;75.33;102809.31;5037193;28;20086;-86
2022/03/21 00:25:43;;;;;;;29.10;22.92;;;;;;;0.69;74.48;102815.63;5055923;28;20465;-86
2022/03/21 00:28:10;;;;;;;28.02;23.38;;;;;;;0.64;73.81;102820.41;5037786;28;20040;-86
2022/03/21 00:30:39;;;;;;;29.98;25.88;;;;;;;0.63;74.54;102824.03;5055534;28;20032;-86
2022/03/21 00:33:04;;;;;;;28.33;24.15;;;;;;;0.56;74.30;102817.41;5037780;28;20072;-86
2022/03/21 00:35:30;;;;;;;28.13;24.20;;;;;;;0.53;74.13;102828.25;5020806;28;20437;-86
2022/03/21 00:37:56;;;;;;;28.92;24.02;;;;;;;0.49;74.93;102822.28;5037287;28;20480;-86
2022/03/21 00:40:24;;;;;;;28.83;24.63;;;;;;;0.51;76.00;102824.84;5037392;28;20029;-86
2022/03/21 00:42:50;;;;;;;28.05;24.80;;;;;;;0.49;76.12;102835.63;5055351;28;20465;-86
2022/03/21 00:45:22;;;;;;;28.45;23.38;;;;;;;0.45;75.11;102825.25;5037072;28;20029;-86
2022/03/21 00:47:49;;;;;;;29.35;25.23;;;;;;;0.46;75.90;102835.00;5037880;28;20399;-87
2022/03/21 00:50:16;;;;;;;28.35;24.75;;;;;;;0.46;75.29;102832.31;5055170;28;20170;-86
2022/03/21 00:52:47;;;;;;;29.75;24.95;;;;;;;0.42;75.46;102831.66;5037209;28;20056;-86
2022/03/21 00:55:14;;;;;;;29.30;23.73;;;;;;;0.42;75.37;102830.81;5053336;28;20473;-86
2022/03/21 00:57:40;;;;;;;29.25;24.45;;;;;;;0.41;75.66;102829.94;5036919;28;20121;-86
2022/03/21 01:00:13;;;;;;;27.35;22.88;;;;;;;0.37;75.46;102830.22;5037464;28;20048;-85
2022/03/21 01:02:39;;;;;;;28.38;23.30;;;;;;;0.33;75.19;102832.25;5054628;28;20025;-86
2022/03/21 01:05:05;;;;;;;26.98;23.58;;;;;;;0.33;76.65;102834.91;5053399;28;20055;-86
2022/03/21 01:07:31;;;;;;;27.45;23.60;;;;;;;0.31;76.83;102839.50;5036610;28;20563;-86
2022/03/21 01:09:57;;;;;;;30.88;25.00;;;;;;;0.28;76.08;102840.56;5036733;28;20045;-86
2022/03/21 01:12:22;;;;;;;29.38;24.40;;;;;;;0.26;77.20;102839.78;5003879;28;20465;-86
2022/03/21 01:14:48;;;;;;;28.88;25.25;;;;;;;0.23;76.44;102840.00;5036599;28;20025;-86
2022/03/21 01:17:13;;;;;;;29.85;24.13;;;;;;;0.20;76.44;102834.84;5054661;28;20424;-86
2022/03/21 01:19:39;;;;;;;27.27;23.73;;;;;;;0.18;77.12;102842.13;5036429;28;20037;-86
2022/03/21 01:22:06;;;;;;;30.17;25.13;;;;;;;0.16;76.81;102836.88;5036634;28;20526;-86
2022/03/21 01:24:33;;;;;;;29.08;23.80;;;;;;;0.15;77.71;102837.81;5052990;28;20469;-86
2022/03/21 01:26:58;;;;;;;28.70;24.35;;;;;;;0.12;77.46;102840.69;5054403;28;20084;-86
2022/03/21 01:29:24;;;;;;;29.50;24.17;;;;;;;0.14;75.42;102843.25;5053834;28;20120;-86
2022/03/21 01:31:49;;;;;;;29.35;25.80;;;;;;;0.11;76.00;102838.13;5052865;28;20032;-86
2022/03/21 01:34:15;;;;;;;30.80;24.90;;;;;;;0.10;76.04;102837.25;5052830;28;20078;-86
2022/03/21 01:36:41;;;;;;;32.25;25.38;;;;;;;0.11;74.90;102846.97;5054377;28;20072;-86
2022/03/21 01:39:07;;;;;;;30.50;26.15;;;;;;;0.08;75.07;102839.16;5054020;28;20029;-86
2022/03/21 01:41:32;;;;;;;31.55;26.50;;;;;;;0.06;75.73;102837.53;5054023;28;20032;-87
2022/03/21 01:44:03;;;;;;;29.88;25.45;;;;;;;0.03;75.82;102851.06;5053713;28;20036;-86
2022/03/21 01:46:29;;;;;;;29.85;25.10;;;;;;;-0.02;76.10;102844.22;5036403;28;20037;-86
2022/03/21 01:48:56;;;;;;;30.30;25.10;;;;;;;-0.05;75.76;102847.06;5052497;28;20043;-86
2022/03/21 01:51:22;;;;;;;30.33;24.95;;;;;;;-0.04;75.43;102847.97;5053868;28;20025;-85
2022/03/21 01:56:33;;;;;;;31.70;26.13;;;;;;;-0.05;75.87;102851.56;5038446;28;20059;-86
2022/03/21 01:58:59;;;;;;;30.75;24.60;;;;;;;-0.09;75.71;102836.69;5053605;28;20132;-86
2022/03/21 02:01:27;;;;;;;30.48;26.65;;;;;;;-0.08;76.65;102841.09;5035886;28;20119;-86
2022/03/21 02:03:53;;;;;;;30.15;26.85;;;;;;;-0.09;76.78;102844.69;5035843;28;20465;-86
2022/03/21 02:06:21;;;;;;;31.27;25.85;;;;;;;-0.08;75.76;102844.59;5035845;28;20052;-86
2022/03/21 02:08:47;;;;;;;32.63;25.33;;;;;;;-0.08;75.68;102849.94;5053600;28;20044;-85
2022/03/21 02:11:12;;;;;;;31.17;25.25;;;;;;;-0.09;75.49;102847.38;5035812;28;20037;-86
2022/03/21 02:13:39;;;;;;;30.85;25.23;;;;;;;-0.09;76.12;102844.69;5018985;28;20068;-86
2022/03/21 02:16:04;;;;;;;30.58;26.13;;;;;;;-0.11;76.06;102844.81;5019089;28;20037;-86
2022/03/21 02:18:31;;;;;;;30.90;26.25;;;;;;;-0.13;76.79;102856.50;5052286;28;20021;-87
2022/03/21 02:21:01;;;;;;;31.35;26.33;;;;;;;-0.19;77.54;102857.78;5052193;28;20032;-86
2022/03/21 02:23:42;;;;;;;29.95;25.27;;;;;;;-0.22;77.05;102852.63;5035564;28;20068;-85
2022/03/21 02:26:09;;;;;;;30.50;24.38;;;;;;;-0.25;77.47;102851.00;5052518;28;20029;-86
2022/03/21 02:28:35;;;;;;;29.95;24.02;;;;;;;-0.26;76.68;102851.94;5053721;28;20103;-86
2022/03/21 02:31:01;;;;;;;27.98;23.17;;;;;;;-0.30;77.61;102853.09;5052218;28;20036;-86
2022/03/21 02:33:27;;;;;;;29.73;24.95;;;;;;;-0.33;78.74;102849.75;5052387;28;20408;-86
2022/03/21 02:35:55;;;;;;;28.80;23.08;;;;;;;-0.36;78.25;102856.13;5052104;28;20068;-86
2022/03/21 02:38:20;;;;;;;28.02;23.40;;;;;;;-0.41;77.63;102850.25;5036349;28;20445;-86
2022/03/21 02:40:46;;;;;;;29.33;24.20;;;;;;;-0.40;77.13;102860.81;5035426;28;20083;-86
2022/03/21 02:43:11;;;;;;;28.95;24.95;;;;;;;-0.41;77.91;102852.91;5035808;28;20052;-85
2022/03/21 02:45:37;;;;;;;29.35;23.52;;;;;;;-0.41;77.67;102848.44;5035061;28;20041;-86
2022/03/21 02:48:02;;;;;;;29.92;24.45;;;;;;;-0.40;77.01;102852.81;5057133;28;20033;-86
2022/03/21 02:50:34;;;;;;;30.23;24.50;;;;;;;-0.39;76.92;102859.00;5039562;28;20090;-85
2022/03/21 02:53:03;;;;;;;30.67;23.85;;;;;;;-0.47;77.06;102846.13;5039590;28;20040;-85
2022/03/21 02:55:28;;;;;;;29.92;24.30;;;;;;;-0.48;77.35;102848.91;5024285;28;20056;-86
2022/03/21 02:57:54;;;;;;;29.20;23.80;;;;;;;-0.52;76.81;102845.53;5035550;28;20049;-86
2022/03/21 03:00:19;;;;;;;29.42;23.85;;;;;;;-0.56;77.00;102842.22;5035769;28;20033;-85
2022/03/21 03:02:45;;;;;;;28.40;22.27;;;;;;;-0.55;77.26;102849.28;5037575;28;20068;-86
2022/03/21 03:05:12;;;;;;;29.85;24.02;;;;;;;-0.55;78.20;102848.41;5035655;28;20060;-86
2022/03/21 03:07:38;;;;;;;31.63;25.33;;;;;;;-0.58;77.56;102843.25;5036869;28;20029;-84
2022/03/21 03:10:03;;;;;;;32.28;25.60;;;;;;;-0.59;77.90;102844.19;5019168;28;20060;-85
2022/03/21 03:12:29;;;;;;;31.83;25.17;;;;;;;-0.62;77.46;102853.25;5036134;28;20029;-86
2022/03/21 03:14:54;;;;;;;31.33;24.50;;;;;;;-0.63;77.70;102848.03;5035673;28;20042;-85
2022/03/21 03:17:20;;;;;;;31.08;23.92;;;;;;;-0.65;77.88;102847.25;5037247;28;20037;-85
2022/03/21 03:19:45;;;;;;;30.55;24.30;;;;;;;-0.62;77.26;102852.38;5035617;28;20069;-85
2022/03/21 03:22:13;;;;;;;30.75;25.00;;;;;;;-0.62;78.17;102849.72;5035941;28;20083;-85
2022/03/21 03:24:40;;;;;;;30.52;24.70;;;;;;;-0.64;78.10;102857.81;5035429;28;20031;-85
2022/03/21 03:27:08;;;;;;;31.90;24.48;;;;;;;-0.68;77.96;102853.59;5035574;28;20044;-85
2022/03/21 03:29:33;;;;;;;30.70;24.60;;;;;;;-0.65;78.35;102855.25;5035119;28;20108;-85
2022/03/21 03:32:03;;;;;;;31.08;24.23;;;;;;;-0.66;78.22;102850.88;5036484;28;20453;-86
2022/03/21 03:34:31;;;;;;;32.35;26.00;;;;;;;-0.69;77.26;102851.03;5036435;28;20029;-85
2022/03/21 03:36:56;;;;;;;29.90;23.70;;;;;;;-0.71;78.42;102856.47;5034972;28;20037;-85
2022/03/21 03:39:25;;;;;;;30.67;25.95;;;;;;;-0.72;78.92;102862.78;5036140;28;20034;-86
2022/03/21 03:41:51;;;;;;;34.83;27.75;;;;;;;-0.73;77.99;102856.56;5035058;28;20037;-85
2022/03/21 03:44:17;;;;;;;34.38;27.63;;;;;;;-0.72;78.03;102862.78;5035276;28;20037;-85
2022/03/21 03:46:44;;;;;;;33.47;27.75;;;;;;;-0.71;77.31;102864.47;5018559;28;20072;-85
2022/03/21 03:49:09;;;;;;;34.15;27.20;;;;;;;-0.72;78.03;102860.09;5036165;28;20467;-85
2022/03/21 03:51:34;;;;;;;32.30;25.77;;;;;;;-0.72;77.93;102874.28;5018703;28;20072;-85
2022/03/21 03:54:00;;;;;;;32.22;27.88;;;;;;;-0.75;78.97;102869.13;5035011;28;20127;-85
2022/03/21 03:56:28;;;;;;;33.78;27.55;;;;;;;-0.74;79.06;102872.66;5034565;28;20054;-85
2022/03/21 03:58:54;;;;;;;30.23;24.35;;;;;;;-0.77;79.18;102872.84;5034867;28;20132;-85
2022/03/21 04:01:19;;;;;;;30.88;25.05;;;;;;;-0.78;79.91;102871.13;5034613;28;20121;-85
2022/03/21 04:03:45;;;;;;;32.63;25.45;;;;;;;-0.80;79.21;102878.34;5035706;28;20037;-85
2022/03/21 04:06:11;;;;;;;28.85;23.42;;;;;;;-0.82;79.16;102877.59;5035579;28;20025;-84
2022/03/21 04:08:37;;;;;;;32.88;26.90;;;;;;;-0.82;78.63;102880.25;5035874;28;20029;-85
2022/03/21 04:11:02;;;;;;;34.78;27.80;;;;;;;-0.82;78.72;102874.94;5035755;28;20030;-84
2022/03/21 04:13:28;;;;;;;36.78;29.38;;;;;;;-0.79;78.58;102886.25;5035527;28;20036;-85
2022/03/21 04:15:53;;;;;;;33.88;27.25;;;;;;;-0.79;79.24;102875.59;5051246;28;20087;-85
2022/03/21 04:18:20;;;;;;;33.90;27.27;;;;;;;-0.81;78.36;102873.97;5034145;28;20420;-85
2022/03/21 04:20:46;;;;;;;34.85;26.73;;;;;;;-0.82;78.92;102874.94;5018076;28;20041;-84
2022/03/21 04:23:14;;;;;;;33.33;26.65;;;;;;;-0.83;79.22;102875.88;5034309;28;20042;-85
2022/03/21 04:25:40;;;;;;;34.10;27.20;;;;;;;-0.83;80.79;102875.88;5035733;28;20029;-85
2022/03/21 04:28:09;;;;;;;32.05;26.55;;;;;;;-0.83;80.92;102881.19;5035314;28;20037;-85
2022/03/21 04:30:35;;;;;;;32.63;26.55;;;;;;;-0.83;79.50;102887.38;5035345;28;20116;-85
2022/03/21 04:33:01;;;;;;;33.60;27.00;;;;;;;-0.85;79.61;102875.13;5017492;28;20042;-85
2022/03/21 04:35:26;;;;;;;33.55;27.10;;;;;;;-0.87;79.46;102867.22;5034142;28;20080;-84
2022/03/21 04:37:55;;;;;;;34.88;27.50;;;;;;;-0.87;79.18;102872.53;5034349;28;20473;-85
2022/03/21 04:40:21;;;;;;;35.20;27.67;;;;;;;-0.90;79.33;102870.91;5035211;28;20112;-85
2022/03/21 04:42:46;;;;;;;35.63;28.60;;;;;;;-0.92;79.75;102877.25;5050418;28;20461;-85
2022/03/21 04:45:12;;;;;;;32.17;26.92;;;;;;;-0.95;80.77;102870.31;5034655;28;20029;-86
2022/03/21 04:47:37;;;;;;;32.03;25.58;;;;;;;-0.94;79.85;102884.50;5034656;28;20030;-85
2022/03/21 04:50:03;;;;;;;31.27;25.67;;;;;;;-0.97;80.76;102871.38;5033822;28;20041;-86
2022/03/21 04:52:28;;;;;;;30.63;24.60;;;;;;;-0.99;80.72;102879.44;5034992;28;20041;-85
2022/03/21 04:54:54;;;;;;;29.80;24.30;;;;;;;-1.02;79.40;102882.25;5034261;28;20039;-84
2022/03/21 04:57:21;;;;;;;32.45;25.23;;;;;;;-1.04;79.79;102878.00;5033547;28;20057;-85
2022/03/21 04:59:46;;;;;;;34.08;25.42;;;;;;;-1.07;79.54;102881.69;5033532;28;20072;-85
2022/03/21 05:02:11;;;;;;;30.13;24.85;;;;;;;-1.10;79.46;102888.03;5033865;28;20067;-84
2022/03/21 05:04:37;;;;;;;32.47;26.30;;;;;;;-1.08;79.38;102887.94;5033051;28;20067;-85
2022/03/21 05:07:03;;;;;;;33.28;26.92;;;;;;;-1.08;80.47;102894.16;5034590;28;20061;-84
2022/03/21 05:09:28;;;;;;;31.42;24.63;;;;;;;-1.10;80.43;102890.72;5033357;28;20033;-85
2022/03/21 05:11:54;;;;;;;34.20;26.33;;;;;;;-1.08;80.29;102893.28;5033034;28;20037;-84
2022/03/21 05:14:19;;;;;;;31.83;26.48;;;;;;;-1.08;80.90;102903.94;5016563;28;20030;-85
2022/03/21 05:16:49;;;;;;;32.65;25.58;;;;;;;-1.08;78.63;102903.94;5033973;28;20029;-85
2022/03/21 05:19:14;;;;;;;35.25;27.02;;;;;;;-1.08;79.47;102898.63;5034559;28;20059;-85
2022/03/21 05:21:40;;;;;;;35.30;28.23;;;;;;;-1.08;79.96;102896.81;5033658;28;20079;-83
2022/03/21 05:32:23;;;;;;;35.28;27.27;;;;;;;-1.07;79.87;102895.84;5019811;28;20100;-85
2022/03/21 05:37:32;;;;;;;33.85;26.58;;;;;;;-1.07;78.28;102900.34;5034493;28;20044;-85
2022/03/21 05:42:41;;;;;;;35.78;28.25;;;;;;;-1.10;80.46;102900.53;5033034;28;20044;-85
2022/03/21 05:45:09;;;;;;;33.63;26.55;;;;;;;-1.10;79.61;102898.69;5032754;28;20033;-85
2022/03/21 05:48:50;;;;;;;35.97;28.42;;;;;;;-1.08;79.75;102899.50;5032761;28;20033;-85
2022/03/21 05:50:20;;;;;;;34.58;27.63;;;;;;;-1.09;80.42;102895.09;5034694;28;20413;-84
2022/03/21 05:52:45;;;;;;;34.75;27.60;;;;;;;-1.08;79.77;102899.50;5032917;28;20060;-84
2022/03/21 05:55:11;;;;;;;32.60;26.02;;;;;;;-1.05;80.81;102901.09;5032965;28;20033;-84
2022/03/21 05:57:36;;;;;;;33.35;25.25;;;;;;;-1.06;81.32;102907.41;5050154;28;20474;-85
2022/03/21 06:00:20;;;;;;;30.20;24.23;;;;;;;-1.06;81.35;102907.41;5053930;28;20087;-85
2022/03/21 06:02:45;;;;;;;30.30;23.95;;;;;;;-1.02;81.07;102914.25;5038582;28;20064;-85
2022/03/21 06:05:11;;;;;;;30.95;24.90;;;;;;;-0.97;81.11;102916.66;5053671;28;20453;-85
2022/03/21 06:07:38;;;;;;;32.85;25.20;;;;;;;-0.92;81.66;102918.09;5053451;28;20060;-85
2022/03/21 06:10:03;;;;;;;32.90;25.23;;;;;;;-0.84;81.70;102924.78;5035967;28;20446;-83
2022/03/21 06:12:30;;;;;;;33.33;25.27;;;;;;;-0.80;81.00;102924.50;5035605;28;20064;-82
2022/03/21 06:14:56;;;;;;;32.67;26.88;;;;;;;-0.76;81.37;102915.38;5019500;28;20041;-82
2022/03/21 06:17:21;;;;;;;32.22;27.40;;;;;;;-0.68;81.72;102922.94;5035516;28;20044;-83
2022/03/21 06:19:47;;;;;;;32.33;26.55;;;;;;;-0.62;81.35;102921.72;5019081;28;20028;-82
2022/03/21 06:22:12;;;;;;;31.25;26.75;;;;;;;-0.56;81.89;102916.00;5038436;28;20040;-83
2022/03/21 06:24:37;;;;;;;32.08;27.55;;;;;;;-0.48;81.46;102915.56;5023239;28;20033;-84
2022/03/21 06:27:03;;;;;;;33.75;28.75;;;;;;;-0.42;81.20;102921.38;5040088;28;20036;-92
2022/03/21 06:29:29;;;;;;;33.88;26.77;;;;;;;-0.34;80.67;102922.72;5040337;28;20036;-92
2022/03/21 06:31:54;;;;;;;33.40;27.33;;;;;;;-0.27;80.54;102932.09;5023667;28;20037;-90
2022/03/21 06:34:19;;;;;;;32.35;27.92;;;;;;;-0.19;81.03;102935.16;5058019;28;20031;-91
2022/03/21 06:36:45;;;;;;;32.10;27.17;;;;;;;-0.10;80.51;102936.41;5023315;28;20477;-91
2022/03/21 06:39:11;;;;;;;34.28;28.98;;;;;;;-0.04;80.58;102928.03;5022886;28;20135;-90
2022/03/21 06:41:37;;;;;;;34.83;28.02;;;;;;;0.03;81.23;102937.38;5039494;28;20055;-83
2022/03/21 06:44:03;;;;;;;31.73;27.63;;;;;;;0.12;80.57;102935.94;5057255;28;20021;-83
2022/03/21 06:46:29;;;;;;;31.60;27.67;;;;;;;0.19;80.57;102944.41;5057022;28;20105;-83
2022/03/21 06:48:54;;;;;;;33.20;27.73;;;;;;;0.26;80.59;102935.91;5039154;28;20033;-83
2022/03/21 06:51:19;;;;;;;31.23;26.80;;;;;;;0.35;81.17;102942.50;5039412;28;20116;-82
2022/03/21 06:53:45;;;;;;;32.55;26.98;;;;;;;0.43;81.21;102942.00;5056647;28;20041;-83
2022/03/21 06:56:10;;;;;;;33.30;27.10;;;;;;;0.52;81.56;102944.09;5039234;28;20556;-83
2022/03/21 06:58:36;;;;;;;31.60;26.50;;;;;;;0.59;81.04;102949.91;5057402;28;20048;-83
2022/03/21 07:01:01;;;;;;;30.15;26.13;;;;;;;0.69;81.91;102954.56;5038790;28;20033;-84
2022/03/21 07:03:26;;;;;;;31.65;27.00;;;;;;;0.77;81.40;102948.72;5038809;28;20492;-84
2022/03/21 07:05:54;;;;;;;30.67;26.50;;;;;;;0.86;81.54;102948.13;5056820;28;20118;-91
2022/03/21 07:08:19;;;;;;;31.10;26.63;;;;;;;1.00;81.84;102954.38;5039113;28;20036;-85
2022/03/21 07:10:45;;;;;;;32.53;26.70;;;;;;;1.09;80.89;102959.09;5021672;28;20032;-87
2022/03/21 07:13:10;;;;;;;29.50;25.45;;;;;;;1.20;81.17;102961.09;5056459;28;20472;-87
2022/03/21 07:15:39;;;;;;;29.17;25.13;;;;;;;1.28;81.06;102958.75;5039211;28;20072;-86
2022/03/21 07:18:06;;;;;;;30.13;25.65;;;;;;;1.38;81.02;102964.34;5054595;28;20029;-85
2022/03/21 07:20:31;;;;;;;28.75;24.95;;;;;;;1.49;81.19;102964.50;5056084;28;20116;-85
2022/03/21 07:22:58;;;;;;;28.88;24.23;;;;;;;1.60;80.45;102960.25;5038090;28;20131;-85
2022/03/21 07:25:24;;;;;;;30.20;24.08;;;;;;;1.69;80.76;102964.94;5055640;28;20037;-85
2022/03/21 07:27:51;;;;;;;28.08;24.00;;;;;;;1.80;80.55;102961.53;5038061;28;20051;-85
2022/03/21 07:30:17;;;;;;;32.95;26.35;;;;;;;1.92;80.30;102966.06;5038532;28;20037;-85
2022/03/21 07:32:43;;;;;;;31.10;26.15;;;;;;;2.03;80.64;102958.09;5037930;28;20442;-86
2022/03/21 07:35:09;;;;;;;29.85;24.85;;;;;;;2.15;81.52;102953.72;5056059;28;20384;-85
2022/03/21 07:40:57;;;;;;;27.27;22.52;;;;;;;2.44;83.16;102958.84;5055931;28;20118;-85
2022/03/21 07:43:22;;;;;;;26.02;21.35;;;;;;;2.59;83.02;102957.72;5021492;28;20033;-85
2022/03/21 07:48:32;;;;;;;25.05;20.23;;;;;;;2.87;82.81;102961.06;5055998;28;20163;-85
2022/03/21 07:50:58;;;;;;;25.10;19.75;;;;;;;3.01;83.31;102968.09;5037804;28;20490;-85
2022/03/21 07:53:24;;;;;;;25.42;19.15;;;;;;;3.16;83.60;102963.44;5055320;28;20495;-85
2022/03/21 07:55:49;;;;;;;25.08;18.77;;;;;;;3.30;83.86;102957.88;5037670;28;20462;-84
2022/03/21 07:58:15;;;;;;;23.77;18.70;;;;;;;3.46;84.19;102960.25;5055856;28;20065;-85
2022/03/21 08:00:41;;;;;;;23.95;17.75;;;;;;;3.61;83.99;102966.28;5037830;28;20477;-86
2022/03/21 08:03:11;;;;;;;20.92;16.85;;;;;;;3.80;83.97;102962.19;5038005;28;20041;-84
2022/03/21 08:05:36;;;;;;;20.50;16.30;;;;;;;3.96;84.26;102964.53;5055677;28;20032;-83
2022/03/21 08:08:02;;;;;;;21.23;16.00;;;;;;;4.14;83.51;102964.91;5055570;28;20017;-84
2022/03/21 08:10:29;;;;;;;21.10;15.80;;;;;;;4.32;83.72;102957.22;5056053;28;20465;-84
2022/03/21 08:12:56;;;;;;;22.33;16.55;;;;;;;4.47;82.27;102964.03;5055634;28;20112;-84
2022/03/21 08:15:22;;;;;;;21.17;16.45;;;;;;;4.72;82.24;102971.00;5055425;28;20033;-84
2022/03/21 08:18:03;;;;;;;17.60;13.75;;;;;;;4.91;79.08;102966.81;5037819;28;20032;-84
2022/03/21 08:20:38;;;;;;;19.30;14.45;;;;;;;5.09;80.67;102972.50;5055237;28;20536;-84
2022/03/21 08:23:08;;;;;;;18.23;13.38;;;;;;;5.24;79.92;102965.84;5052135;28;20033;-84
2022/03/21 08:25:35;;;;;;;18.58;12.80;;;;;;;5.44;79.54;102969.53;5037877;28;20057;-84
2022/03/21 08:28:00;;;;;;;19.25;13.85;;;;;;;5.66;78.59;102965.03;5037358;28;20134;-84
2022/03/21 08:30:29;;;;;;;16.55;12.32;;;;;;;5.86;77.71;102963.34;5037313;28;20506;-84
2022/03/21 08:32:54;;;;;;;19.73;12.73;;;;;;;6.03;76.28;102956.50;5037835;28;20036;-84
2022/03/21 08:35:21;;;;;;;17.13;11.90;;;;;;;6.19;75.67;102958.72;5037678;28;20033;-84
2022/03/21 08:37:47;;;;;;;15.43;11.38;;;;;;;6.32;75.59;102948.56;5054949;28;20025;-83
2022/03/21 08:40:14;;;;;;;16.42;10.50;;;;;;;6.48;74.54;102966.94;5055390;28;20032;-83
2022/03/21 08:42:39;;;;;;;17.52;11.43;;;;;;;6.65;72.32;102957.31;5037197;28;20029;-83
2022/03/21 08:45:06;;;;;;;18.55;11.40;;;;;;;6.82;71.23;102957.66;5036305;28;20048;-83
2022/03/21 08:47:32;;;;;;;17.67;12.10;;;;;;;6.96;69.79;102954.56;5036999;28;20059;-83
2022/03/21 08:49:58;;;;;;;16.35;11.07;;;;;;;7.11;70.04;102963.09;5036705;28;20033;-83
2022/03/21 08:52:24;;;;;;;14.43;10.57;;;;;;;7.27;68.79;102956.28;5054478;28;20436;-83
2022/03/21 08:54:49;;;;;;;15.43;10.02;;;;;;;7.40;68.84;102951.47;5020810;28;20450;-83
2022/03/21 08:57:15;;;;;;;14.40;9.15;;;;;;;7.53;67.89;102953.88;5036917;28;20061;-83
2022/03/21 08:59:40;;;;;;;15.48;9.57;;;;;;;7.69;68.18;102953.25;5003940;28;20100;-83
2022/03/21 09:02:08;;;;;;;12.70;9.32;;;;;;;7.82;67.15;102948.41;5054380;28;20033;-86
2022/03/21 09:04:35;;;;;;;13.45;8.77;;;;;;;8.00;67.85;102950.34;5054847;28;20063;-84
2022/03/21 09:07:01;;;;;;;14.93;9.50;;;;;;;8.15;66.12;102958.84;5054589;28;20029;-85
2022/03/21 09:09:26;;;;;;;13.48;9.60;;;;;;;8.26;66.02;102951.41;5036476;28;20033;-84
2022/03/21 09:11:52;;;;;;;13.38;9.50;;;;;;;8.37;65.95;102950.38;5054416;28;20027;-84
2022/03/21 09:14:19;;;;;;;16.92;10.70;;;;;;;8.48;65.50;102954.75;5036523;28;20572;-84
2022/03/21 09:16:45;;;;;;;15.13;10.63;;;;;;;8.61;65.04;102959.84;5055279;28;20121;-85
2022/03/21 09:19:11;;;;;;;13.60;9.85;;;;;;;8.72;65.29;102956.06;5054365;28;20064;-84
2022/03/21 09:21:37;;;;;;;14.68;9.43;;;;;;;8.85;64.75;102953.00;5004171;28;20445;-85
2022/03/21 09:24:04;;;;;;;15.30;10.48;;;;;;;8.99;63.91;102946.19;5036462;28;20102;-86
2022/03/21 09:26:30;;;;;;;16.30;10.57;;;;;;;9.12;63.14;102954.78;5036651;28;20052;-86
2022/03/21 09:29:03;;;;;;;15.10;10.57;;;;;;;9.27;62.71;102950.56;5035767;28;20029;-85
2022/03/21 09:31:29;;;;;;;16.52;10.35;;;;;;;9.41;62.52;102949.13;5036166;28;20033;-84
2022/03/21 09:33:55;;;;;;;14.02;9.95;;;;;;;9.58;61.73;102949.25;5054279;28;20032;-85
2022/03/21 09:36:20;;;;;;;16.17;9.10;;;;;;;9.72;60.50;102937.84;5036833;28;20419;-85
2022/03/21 09:38:49;;;;;;;12.07;8.40;;;;;;;9.88;60.42;102936.28;5036569;28;20041;-85
2022/03/21 09:41:22;;;;;;;11.70;8.60;;;;;;;10.04;58.93;102927.38;5053797;28;20025;-84
2022/03/21 09:43:51;;;;;;;15.98;9.32;;;;;;;10.24;59.50;102928.00;5036054;28;20033;-84
2022/03/21 09:46:17;;;;;;;14.73;9.82;;;;;;;10.39;58.20;102931.81;5036469;28;20033;-84
2022/03/21 09:48:47;;;;;;;15.13;9.57;;;;;;;10.58;56.91;102929.84;5053451;28;20040;-84
2022/03/21 09:51:12;;;;;;;12.20;8.40;;;;;;;10.75;56.77;102919.88;5053696;28;20025;-84
2022/03/21 09:53:39;;;;;;;13.05;9.30;;;;;;;10.92;55.51;102929.78;5019500;28;20523;-84
2022/03/21 09:56:06;;;;;;;11.90;8.70;;;;;;;11.05;55.75;102927.41;5053591;28;20120;-84
2022/03/21 09:58:31;;;;;;;14.68;9.52;;;;;;;11.22;56.25;102925.56;5053558;28;20060;-84
2022/03/21 10:00:57;;;;;;;12.63;9.50;;;;;;;11.40;54.85;102927.28;5035631;28;20033;-84
2022/03/21 10:03:22;;;;;;;12.93;8.93;;;;;;;11.57;55.75;102928.09;5053679;28;20033;-84
2022/03/21 10:05:51;;;;;;;11.15;8.50;;;;;;;11.74;54.52;102916.19;5035921;28;20033;-86
2022/03/21 10:08:22;;;;;;;10.02;7.80;;;;;;;11.96;53.67;102924.69;5053940;28;20043;-86
2022/03/21 10:11:11;;;;;;;14.07;9.38;;;;;;;12.14;54.42;102918.19;5053397;28;20021;-86
2022/03/21 10:13:38;;;;;;;13.13;9.65;;;;;;;12.32;52.47;102907.06;5052335;28;20053;-87
2022/03/21 10:16:09;;;;;;;13.68;9.18;;;;;;;12.53;51.76;102917.34;5053234;28;20079;-87
2022/03/21 10:19:00;;;;;;;13.98;9.07;;;;;;;12.74;51.78;102908.53;5035618;28;20063;-87
2022/03/21 10:21:28;;;;;;;12.55;8.93;;;;;;;12.93;49.40;102902.63;5054260;28;20064;-87
2022/03/21 10:24:06;;;;;;;13.10;8.77;;;;;;;13.13;51.70;102905.69;5052095;28;20029;-86
2022/03/21 10:26:42;;;;;;;11.23;8.57;;;;;;;13.39;50.47;102903.66;5036352;28;20031;-86
2022/03/21 10:29:10;;;;;;;15.95;10.50;;;;;;;13.55;49.37;102902.66;5036061;28;20124;-87
2022/03/21 10:31:40;;;;;;;12.50;9.32;;;;;;;13.73;48.56;102897.72;5035046;28;20040;-87
2022/03/21 10:34:12;;;;;;;14.10;9.63;;;;;;;13.91;48.27;102901.97;5051956;28;20029;-87
2022/03/21 10:37:03;;;;;;;15.23;9.90;;;;;;;14.18;49.95;102900.44;5053551;28;20021;-87
2022/03/21 10:39:31;;;;;;;13.73;9.02;;;;;;;14.45;47.76;102898.88;5051978;28;20056;-87
2022/03/21 10:42:02;;;;;;;11.90;8.90;;;;;;;14.70;46.40;102895.84;5035562;28;20467;-87
2022/03/21 10:44:28;;;;;;;13.30;9.30;;;;;;;14.88;46.64;102895.41;5052222;28;20469;-87
2022/03/21 10:46:55;;;;;;;12.80;8.73;;;;;;;15.07;46.13;102899.38;5035241;28;20033;-87
2022/03/21 10:49:30;;;;;;;13.23;9.35;;;;;;;15.34;46.33;102894.16;5051449;28;20074;-87
2022/03/21 10:51:56;;;;;;;14.45;8.80;;;;;;;15.61;44.76;102897.97;5052021;28;20460;-88
2022/03/21 10:54:38;;;;;;;14.15;8.52;;;;;;;15.95;45.89;102893.56;5053176;28;20027;-87
2022/03/21 10:57:05;;;;;;;13.13;8.73;;;;;;;16.11;42.82;102886.94;5034919;28;20049;-87
2022/03/21 10:59:34;;;;;;;14.48;9.82;;;;;;;16.29;42.99;102881.72;5018830;28;20033;-87
2022/03/21 11:02:19;;;;;;;12.48;9.02;;;;;;;16.60;44.54;102885.00;5053014;28;20037;-87
2022/03/21 11:04:45;;;;;;;11.95;8.68;;;;;;;16.76;41.67;102878.31;5035094;28;20036;-87
2022/03/21 11:07:13;;;;;;;11.40;8.30;;;;;;;17.08;41.18;102873.97;5035842;28;20037;-87
2022/03/21 11:09:40;;;;;;;15.10;9.65;;;;;;;17.38;40.40;102875.41;5039260;28;20126;-87
2022/03/21 11:12:08;;;;;;;11.73;8.43;;;;;;;17.60;41.11;102870.53;5038931;28;20481;-87
2022/03/21 11:14:43;;;;;;;12.40;8.18;;;;;;;18.07;41.80;102871.34;5055331;28;20028;-87
2022/03/21 11:17:08;;;;;;;16.63;10.15;;;;;;;18.54;39.72;102869.22;5056650;28;20091;-88
2022/03/21 11:19:34;;;;;;;14.27;10.25;;;;;;;19.09;38.14;102863.16;5056546;28;20432;-87
2022/03/21 11:22:00;;;;;;;14.23;10.35;;;;;;;20.70;35.29;102869.69;5038501;28;20089;-88
2022/03/21 11:24:28;;;;;;;13.38;8.80;;;;;;;22.94;33.28;102859.41;5021882;28;20198;-87
2022/03/21 11:26:54;;;;;;;11.20;8.65;;;;;;;25.41;29.38;102862.47;5022218;28;20033;-87
2022/03/21 11:29:52;;;;;;;12.93;8.02;;;;;;;27.66;26.97;102857.66;5056211;28;20032;-87
2022/03/21 11:32:45;;;;;;;8.27;6.53;;;;;;;29.74;24.05;102849.19;5055380;28;20021;-87
2022/03/21 11:35:11;;;;;;;12.07;8.38;;;;;;;31.29;21.37;102844.91;5038377;28;20380;-88
2022/03/21 11:37:37;;;;;;;6.90;6.07;;;;;;;32.39;21.85;102841.53;5038568;28;20481;-88